Time;durP1;ratioP1;P1;durP2;ratioP2;P2;SDS_P1;SDS_P2;PMS_P1;PMS_P2;Temp;Humidity;BMP_temperature;BMP_pressure;BME280_temperature;BME280_humidity;BME280_pressure;Samples;Min_cycle;Max_cycle;Signal;HPM_P1;HPM_P2
2022/01/31 00:02:26;;;;;;;;;;;;;;;6.60;38.68;99020.59;4515545;31;33600;-85
2022/01/31 00:04:54;;;;;;;;;;;;;;;7.09;37.36;99032.16;4504604;31;34985;-85
2022/01/31 00:07:21;;;;;;;;;;;;;;;6.71;38.08;99026.91;4513123;31;34221;-85
2022/01/31 00:09:48;;;;;;;;;;;;;;;6.66;38.33;99023.31;4501808;31;33453;-84
2022/01/31 00:12:19;;;;;;;;;;;;;;;6.81;37.70;99031.44;4499782;31;33066;-85
2022/01/31 00:14:49;;;;;;;;;;;;;;;7.03;37.27;99029.41;4514037;31;33662;-85
2022/01/31 00:17:17;;;;;;;;;;;;;;;7.10;37.33;99030.44;4507651;31;35313;-85
2022/01/31 00:19:44;;;;;;;;;;;;;;;6.98;37.60;99029.31;4501833;31;33518;-84
2022/01/31 00:22:12;;;;;;;;;;;;;;;6.50;38.45;99024.63;4502295;31;32778;-86
2022/01/31 00:24:39;;;;;;;;;;;;;;;7.10;37.53;99012.41;4508337;31;33879;-86
2022/01/31 00:27:07;;;;;;;;;;;;;;;7.45;36.39;99003.75;4499527;31;34070;-85
2022/01/31 00:29:34;;;;;;;;;;;;;;;7.26;36.03;99012.78;4498394;31;34135;-85
2022/01/31 00:32:03;;;;;;;;;;;;;;;6.83;37.41;99001.44;4500551;31;34113;-84
2022/01/31 00:34:31;;;;;;;;;;;;;;;6.14;38.67;99011.66;4507531;31;34834;-85
2022/01/31 00:36:59;;;;;;;;;;;;;;;6.42;38.03;99007.25;4515810;31;35121;-84
2022/01/31 00:39:28;;;;;;;;;;;;;;;6.13;38.44;99004.75;4515689;31;33976;-85
2022/01/31 00:41:55;;;;;;;;;;;;;;;6.41;37.85;98987.47;4505730;31;33402;-85
2022/01/31 00:44:28;;;;;;;;;;;;;;;6.58;37.20;98994.78;4511551;31;34157;-86
2022/01/31 00:47:06;;;;;;;;;;;;;;;5.95;38.71;98999.97;4509147;31;34497;-85
2022/01/31 00:52:01;;;;;;;;;;;;;;;6.02;38.41;98986.44;4499887;31;33756;-85
2022/01/31 00:54:28;;;;;;;;;;;;;;;6.52;37.76;98968.03;4511880;31;34127;-85
2022/01/31 00:56:55;;;;;;;;;;;;;;;6.53;37.32;98985.22;4508573;31;35814;-85
2022/01/31 00:59:23;;;;;;;;;;;;;;;6.82;36.86;98983.38;4512439;31;33443;-85
2022/01/31 01:01:50;;;;;;;;;;;;;;;6.69;36.76;98992.50;4515426;31;32928;-84
2022/01/31 01:04:17;;;;;;;;;;;;;;;7.21;36.34;99005.78;4514704;31;35107;-84
2022/01/31 01:06:45;;;;;;;;;;;;;;;5.98;38.32;99000.03;4511534;31;33971;-85
2022/01/31 01:09:12;;;;;;;;;;;;;;;6.81;36.85;99003.09;4499678;31;33916;-85
2022/01/31 01:11:39;;;;;;;;;;;;;;;7.17;36.14;99015.16;4499901;31;34530;-85
2022/01/31 01:14:07;;;;;;;;;;;;;;;6.19;37.90;99025.50;4508848;31;34628;-85
2022/01/31 01:16:35;;;;;;;;;;;;;;;7.91;34.72;99022.81;4512435;31;34384;-85
2022/01/31 01:19:02;;;;;;;;;;;;;;;7.62;35.33;99024.78;4514383;31;34908;-85
2022/01/31 01:21:30;;;;;;;;;;;;;;;8.73;33.05;99023.59;4514603;31;33541;-85
2022/01/31 01:23:57;;;;;;;;;;;;;;;8.91;32.75;99015.28;4505981;31;33838;-85
2022/01/31 01:26:24;;;;;;;;;;;;;;;8.49;33.51;99025.75;4498817;31;35153;-85
2022/01/31 01:28:52;;;;;;;;;;;;;;;7.70;34.58;99022.38;4504443;31;34125;-86
2022/01/31 01:31:20;;;;;;;;;;;;;;;8.11;33.72;99012.94;4514672;31;33316;-85
2022/01/31 01:33:48;;;;;;;;;;;;;;;6.79;36.32;99025.41;4499938;31;34288;-86
2022/01/31 01:36:15;;;;;;;;;;;;;;;7.61;34.66;99015.28;4499289;31;35179;-84
2022/01/31 01:38:42;;;;;;;;;;;;;;;8.32;33.81;99014.16;4511110;31;32731;-86
2022/01/31 01:41:10;;;;;;;;;;;;;;;6.82;36.12;99012.59;4515172;31;33715;-86
2022/01/31 01:43:38;;;;;;;;;;;;;;;7.29;35.45;99015.44;4514741;31;34253;-85
2022/01/31 01:46:06;;;;;;;;;;;;;;;5.92;38.11;99005.03;4514877;31;33779;-85
2022/01/31 01:48:33;;;;;;;;;;;;;;;6.13;37.67;98994.44;4499629;31;34292;-85
2022/01/31 01:51:01;;;;;;;;;;;;;;;7.78;34.29;98980.41;4499116;31;33497;-85
2022/01/31 01:53:29;;;;;;;;;;;;;;;7.47;35.08;98975.44;4501989;31;34227;-85
2022/01/31 01:55:56;;;;;;;;;;;;;;;6.79;36.22;98981.59;4497623;31;33902;-85
2022/01/31 01:58:24;;;;;;;;;;;;;;;7.04;36.05;98958.97;4511993;31;34087;-85
2022/01/31 02:01:02;;;;;;;;;;;;;;;7.19;35.91;98943.84;4511385;31;32940;-85
2022/01/31 02:03:32;;;;;;;;;;;;;;;6.68;36.56;98935.78;4509069;31;34205;-84
2022/01/31 02:06:00;;;;;;;;;;;;;;;6.88;36.23;98944.00;4514697;31;35128;-85
2022/01/31 02:08:28;;;;;;;;;;;;;;;7.60;34.87;98948.19;4497775;31;35041;-85
2022/01/31 02:10:56;;;;;;;;;;;;;;;7.61;35.02;98958.53;4499908;31;33610;-85
2022/01/31 02:13:24;;;;;;;;;;;;;;;7.47;35.25;98947.06;4514772;31;34063;-85
2022/01/31 02:15:53;;;;;;;;;;;;;;;7.42;35.35;98951.25;4500543;31;34086;-84
2022/01/31 02:18:25;;;;;;;;;;;;;;;7.82;35.07;98957.25;4508003;31;32321;-85
2022/01/31 02:20:54;;;;;;;;;;;;;;;8.00;34.28;98955.91;4513978;31;33311;-84
2022/01/31 02:23:22;;;;;;;;;;;;;;;7.53;35.41;98963.53;4514929;31;34941;-85
2022/01/31 02:26:03;;;;;;;;;;;;;;;7.17;36.44;98955.88;4513443;31;33917;-85
2022/01/31 02:28:33;;;;;;;;;;;;;;;7.73;35.81;98947.63;4509652;31;34639;-85
2022/01/31 02:31:01;;;;;;;;;;;;;;;6.43;37.66;98948.03;4508467;31;33586;-85
2022/01/31 02:33:28;;;;;;;;;;;;;;;7.18;36.54;98944.72;4511778;31;34089;-85
2022/01/31 02:35:57;;;;;;;;;;;;;;;7.83;35.64;98946.06;4514545;31;35399;-85
2022/01/31 02:38:25;;;;;;;;;;;;;;;8.64;33.73;98938.16;4501458;31;35125;-85
2022/01/31 02:40:53;;;;;;;;;;;;;;;7.61;35.84;98937.88;4500148;31;32939;-85
2022/01/31 02:43:22;;;;;;;;;;;;;;;7.73;35.45;98935.59;4513716;31;33702;-85
2022/01/31 02:45:49;;;;;;;;;;;;;;;8.33;34.23;98935.84;4514392;31;35068;-85
2022/01/31 02:48:21;;;;;;;;;;;;;;;7.44;35.66;98923.78;4506915;31;33731;-84
2022/01/31 02:50:49;;;;;;;;;;;;;;;8.15;34.37;98919.19;4510950;31;33501;-84
2022/01/31 02:53:27;;;;;;;;;;;;;;;8.16;34.64;98902.84;4498339;31;34893;-87
2022/01/31 02:55:58;;;;;;;;;;;;;;;7.36;36.04;98905.56;4498554;31;35217;-85
2022/01/31 02:58:25;;;;;;;;;;;;;;;7.98;34.75;98905.94;4508739;31;34825;-86
2022/01/31 03:00:53;;;;;;;;;;;;;;;7.25;35.96;98901.88;4505531;31;33223;-85
2022/01/31 03:03:21;;;;;;;;;;;;;;;7.28;36.59;98905.41;4514200;31;35007;-86
2022/01/31 03:05:49;;;;;;;;;;;;;;;7.12;36.37;98898.16;4513017;31;34090;-85
2022/01/31 03:08:16;;;;;;;;;;;;;;;8.46;33.77;98893.94;4500996;31;34005;-85
2022/01/31 03:10:44;;;;;;;;;;;;;;;8.07;34.42;98889.78;4496980;31;33900;-86
2022/01/31 03:13:11;;;;;;;;;;;;;;;7.01;36.55;98902.22;4498707;31;34226;-85
2022/01/31 03:15:39;;;;;;;;;;;;;;;7.09;35.97;98903.25;4512203;31;34104;-87
2022/01/31 03:18:09;;;;;;;;;;;;;;;7.17;36.18;98903.44;4513700;31;33470;-86
2022/01/31 03:20:37;;;;;;;;;;;;;;;7.80;34.94;98896.16;4513885;31;33490;-85
2022/01/31 03:23:04;;;;;;;;;;;;;;;8.28;33.95;98894.44;4499500;31;34141;-87
2022/01/31 03:25:33;;;;;;;;;;;;;;;7.84;34.24;98891.03;4497962;31;34115;-85
2022/01/31 03:28:01;;;;;;;;;;;;;;;7.52;35.22;98886.13;4497542;31;34240;-84
2022/01/31 03:30:28;;;;;;;;;;;;;;;8.61;33.80;98878.66;4497645;31;33080;-84
2022/01/31 03:32:55;;;;;;;;;;;;;;;8.13;34.09;98879.53;4509646;31;34172;-84
2022/01/31 03:35:23;;;;;;;;;;;;;;;8.41;33.98;98878.34;4512171;31;33679;-85
2022/01/31 03:37:50;;;;;;;;;;;;;;;7.97;33.89;98872.37;4512410;31;35069;-85
2022/01/31 03:40:19;;;;;;;;;;;;;;;6.83;36.24;98874.31;4505225;31;33224;-85
2022/01/31 03:42:47;;;;;;;;;;;;;;;7.14;36.04;98860.41;4497917;31;34155;-84
2022/01/31 03:45:14;;;;;;;;;;;;;;;7.64;34.87;98870.88;4499596;31;34402;-84
2022/01/31 03:47:46;;;;;;;;;;;;;;;6.99;36.22;98885.84;4500291;31;34943;-84
2022/01/31 03:50:15;;;;;;;;;;;;;;;7.06;35.86;98878.28;4513606;31;33379;-84
2022/01/31 03:52:44;;;;;;;;;;;;;;;7.64;34.89;98870.88;4507338;31;35558;-84
2022/01/31 03:55:11;;;;;;;;;;;;;;;7.46;34.81;98863.66;4501956;31;35274;-84
2022/01/31 03:57:39;;;;;;;;;;;;;;;7.36;35.07;98866.03;4498504;31;33834;-84
2022/01/31 04:00:08;;;;;;;;;;;;;;;7.16;34.99;98860.41;4500233;31;33365;-84
2022/01/31 04:02:42;;;;;;;;;;;;;;;6.82;35.57;98850.28;4510095;31;34346;-84
2022/01/31 04:05:10;;;;;;;;;;;;;;;6.73;35.82;98844.88;4515869;31;34218;-82
2022/01/31 04:07:37;;;;;;;;;;;;;;;7.44;34.72;98843.84;4507247;31;35206;-85
2022/01/31 04:10:04;;;;;;;;;;;;;;;6.97;35.37;98846.28;4499673;31;34667;-86
2022/01/31 04:12:31;;;;;;;;;;;;;;;6.27;36.63;98832.66;4503045;31;33960;-84
2022/01/31 04:14:58;;;;;;;;;;;;;;;6.98;35.56;98838.59;4499749;31;35251;-84
2022/01/31 04:17:25;;;;;;;;;;;;;;;6.98;35.38;98845.44;4499903;31;34203;-85
2022/01/31 04:19:53;;;;;;;;;;;;;;;7.74;34.21;98830.66;4499628;31;33404;-85
2022/01/31 04:22:24;;;;;;;;;;;;;;;7.04;34.58;98823.22;4503063;31;35022;-85
2022/01/31 04:24:55;;;;;;;;;;;;;;;6.89;35.18;98804.87;4499800;31;34560;-86
2022/01/31 04:27:27;;;;;;;;;;;;;;;6.35;35.73;98810.53;4499461;31;34090;-85
2022/01/31 04:29:54;;;;;;;;;;;;;;;7.44;34.16;98811.16;4511448;31;34261;-85
2022/01/31 04:32:21;;;;;;;;;;;;;;;7.21;34.43;98808.12;4511887;31;34205;-83
2022/01/31 04:34:48;;;;;;;;;;;;;;;8.12;32.75;98802.06;4515280;31;34846;-84
2022/01/31 04:37:15;;;;;;;;;;;;;;;7.40;34.07;98818.81;4515598;31;34301;-85
2022/01/31 04:39:42;;;;;;;;;;;;;;;7.39;33.91;98825.69;4510566;31;33471;-84
2022/01/31 04:42:09;;;;;;;;;;;;;;;7.34;34.38;98835.03;4505888;31;34281;-85
2022/01/31 04:44:36;;;;;;;;;;;;;;;7.34;34.17;98829.88;4506874;31;34367;-86
2022/01/31 04:47:04;;;;;;;;;;;;;;;6.86;34.98;98825.44;4510151;31;35085;-85
2022/01/31 04:49:33;;;;;;;;;;;;;;;8.06;33.02;98805.41;4515618;31;34327;-85
2022/01/31 04:52:00;;;;;;;;;;;;;;;7.62;33.67;98789.16;4511459;31;34276;-85
2022/01/31 04:54:27;;;;;;;;;;;;;;;7.71;33.73;98782.44;4515399;31;34404;-85
2022/01/31 04:56:54;;;;;;;;;;;;;;;7.11;34.91;98785.56;4505154;31;35263;-86
2022/01/31 04:59:22;;;;;;;;;;;;;;;6.98;34.98;98779.31;4502618;31;33797;-85
2022/01/31 05:01:50;;;;;;;;;;;;;;;6.47;36.15;98792.78;4511734;31;33937;-85
2022/01/31 05:04:17;;;;;;;;;;;;;;;7.05;35.24;98799.22;4514090;31;34384;-84
2022/01/31 05:06:46;;;;;;;;;;;;;;;8.23;32.85;98801.41;4512876;31;34894;-85
2022/01/31 05:09:13;;;;;;;;;;;;;;;8.14;33.24;98810.69;4515360;31;33665;-85
2022/01/31 05:11:40;;;;;;;;;;;;;;;8.74;32.09;98808.22;4507781;31;34909;-84
2022/01/31 05:14:07;;;;;;;;;;;;;;;8.99;31.97;98806.84;4499311;31;35245;-84
2022/01/31 05:16:34;;;;;;;;;;;;;;;8.83;32.09;98801.47;4499559;31;34991;-85
2022/01/31 05:19:02;;;;;;;;;;;;;;;7.67;33.66;98806.44;4499628;31;33540;-84
2022/01/31 05:21:29;;;;;;;;;;;;;;;9.23;31.19;98800.25;4508043;31;34871;-85
2022/01/31 05:23:57;;;;;;;;;;;;;;;8.65;32.94;98800.34;4508644;31;35263;-86
2022/01/31 05:26:24;;;;;;;;;;;;;;;7.22;34.08;98794.41;4498676;31;34780;-85
2022/01/31 05:28:51;;;;;;;;;;;;;;;8.76;32.54;98783.28;4502864;31;33114;-84
2022/01/31 05:31:18;;;;;;;;;;;;;;;8.60;32.25;98767.53;4500367;31;33988;-85
2022/01/31 05:33:45;;;;;;;;;;;;;;;9.27;31.34;98750.28;4500266;31;34427;-86
2022/01/31 05:36:12;;;;;;;;;;;;;;;8.19;33.14;98736.78;4499180;31;33694;-85
2022/01/31 05:38:40;;;;;;;;;;;;;;;7.63;34.34;98737.56;4502945;31;34064;-87
2022/01/31 05:41:10;;;;;;;;;;;;;;;8.23;32.95;98736.84;4506748;31;34260;-85
2022/01/31 05:43:37;;;;;;;;;;;;;;;8.11;33.57;98728.91;4505152;31;35374;-84
2022/01/31 05:46:04;;;;;;;;;;;;;;;7.48;34.71;98729.56;4513195;31;33022;-86
2022/01/31 05:48:33;;;;;;;;;;;;;;;7.74;34.36;98730.88;4506054;31;34375;-86
2022/01/31 05:51:03;;;;;;;;;;;;;;;8.73;32.76;98723.78;4500686;31;34850;-86
2022/01/31 05:53:31;;;;;;;;;;;;;;;7.92;33.56;98713.97;4508618;31;34337;-84
2022/01/31 05:55:58;;;;;;;;;;;;;;;9.02;32.09;98725.88;4506427;31;34013;-86
2022/01/31 05:58:25;;;;;;;;;;;;;;;8.48;33.16;98734.63;4512889;31;34098;-86
2022/01/31 06:00:52;;;;;;;;;;;;;;;7.58;35.10;98739.22;4504560;31;33876;-86
2022/01/31 06:03:19;;;;;;;;;;;;;;;8.80;32.93;98729.03;4513456;31;34262;-85
2022/01/31 06:05:46;;;;;;;;;;;;;;;8.53;33.14;98730.41;4514804;31;34312;-86
2022/01/31 06:08:14;;;;;;;;;;;;;;;8.95;32.92;98721.47;4507047;31;34421;-88
2022/01/31 06:10:44;;;;;;;;;;;;;;;9.08;32.58;98723.34;4498824;31;35040;-88
2022/01/31 06:13:11;;;;;;;;;;;;;;;9.33;32.17;98729.66;4498698;31;35217;-86
2022/01/31 06:15:39;;;;;;;;;;;;;;;9.80;31.37;98736.16;4499042;31;35059;-86
2022/01/31 06:18:06;;;;;;;;;;;;;;;9.65;31.51;98727.38;4503963;31;34237;-86
2022/01/31 06:20:33;;;;;;;;;;;;;;;9.48;31.62;98736.72;4505427;31;33927;-86
2022/01/31 06:23:01;;;;;;;;;;;;;;;9.50;31.74;98728.09;4498543;31;35275;-86
2022/01/31 06:25:29;;;;;;;;;;;;;;;9.70;31.16;98735.22;4498993;31;34315;-86
2022/01/31 06:27:56;;;;;;;;;;;;;;;9.56;31.74;98726.44;4498900;31;32670;-85
2022/01/31 06:30:25;;;;;;;;;;;;;;;8.93;32.80;98736.94;4507438;31;33976;-85
2022/01/31 06:32:53;;;;;;;;;;;;;;;8.89;33.06;98739.50;4502821;31;35967;-86
2022/01/31 06:35:20;;;;;;;;;;;;;;;9.25;32.43;98727.00;4505636;31;35537;-85
2022/01/31 06:37:47;;;;;;;;;;;;;;;9.93;31.20;98722.47;4514219;31;33577;-86
2022/01/31 06:40:15;;;;;;;;;;;;;;;9.41;31.61;98711.63;4514522;31;33826;-85
2022/01/31 06:42:42;;;;;;;;;;;;;;;8.52;33.52;98710.56;4514308;31;35254;-86
2022/01/31 06:45:09;;;;;;;;;;;;;;;7.65;35.18;98707.53;4509319;31;34277;-85
2022/01/31 06:47:37;;;;;;;;;;;;;;;8.76;33.46;98692.81;4503931;31;34239;-86
2022/01/31 06:50:06;;;;;;;;;;;;;;;8.59;33.42;98694.31;4498249;31;33469;-86
2022/01/31 06:52:36;;;;;;;;;;;;;;;9.19;33.44;98690.72;4497396;31;33235;-86
2022/01/31 06:55:05;;;;;;;;;;;;;;;9.36;32.87;98687.44;4498412;31;33867;-87
2022/01/31 06:57:36;;;;;;;;;;;;;;;9.18;32.92;98688.97;4496579;31;33620;-86
2022/01/31 07:00:05;;;;;;;;;;;;;;;8.65;34.03;98684.06;4499749;31;33322;-86
2022/01/31 07:02:32;;;;;;;;;;;;;;;8.55;34.82;98674.44;4499141;31;34888;-86
2022/01/31 07:05:02;;;;;;;;;;;;;;;8.17;35.21;98651.53;4496904;31;35064;-86
2022/01/31 07:07:30;;;;;;;;;;;;;;;7.46;36.49;98659.91;4496498;31;33657;-87
2022/01/31 07:09:57;;;;;;;;;;;;;;;8.27;35.16;98662.88;4512220;31;34194;-87
2022/01/31 07:12:31;;;;;;;;;;;;;;;8.63;34.84;98646.97;4506960;31;34273;-85
2022/01/31 07:15:03;;;;;;;;;;;;;;;9.29;33.80;98657.19;4503266;31;33929;-87
2022/01/31 07:17:30;;;;;;;;;;;;;;;9.71;33.05;98670.50;4500472;31;33317;-87
2022/01/31 07:19:57;;;;;;;;;;;;;;;10.12;32.52;98664.78;4512640;31;34048;-86
2022/01/31 07:22:33;;;;;;;;;;;;;;;10.62;31.39;98660.75;4508921;31;34169;-87
2022/01/31 07:25:03;;;;;;;;;;;;;;;9.62;32.53;98664.38;4514610;31;34277;-87
2022/01/31 07:27:30;;;;;;;;;;;;;;;10.15;31.89;98662.22;4513943;31;34467;-87
2022/01/31 07:29:58;;;;;;;;;;;;;;;11.03;30.53;98670.41;4505097;31;34157;-86
2022/01/31 07:32:25;;;;;;;;;;;;;;;11.22;30.03;98654.03;4504859;31;33940;-86
2022/01/31 07:34:55;;;;;;;;;;;;;;;10.34;31.39;98652.84;4500753;31;33610;-87
2022/01/31 07:37:23;;;;;;;;;;;;;;;11.40;30.21;98645.37;4502286;31;32952;-87
2022/01/31 07:39:50;;;;;;;;;;;;;;;10.69;30.98;98640.03;4515925;31;33904;-86
2022/01/31 07:42:18;;;;;;;;;;;;;;;10.10;31.90;98637.13;4515399;31;34047;-87
2022/01/31 07:44:45;;;;;;;;;;;;;;;11.41;29.70;98632.44;4513591;31;35014;-87
2022/01/31 07:47:13;;;;;;;;;;;;;;;11.11;30.26;98628.06;4510985;31;33465;-86
2022/01/31 07:49:40;;;;;;;;;;;;;;;10.47;31.68;98633.03;4499637;31;34553;-87
2022/01/31 07:52:07;;;;;;;;;;;;;;;9.98;32.59;98635.31;4500116;31;35108;-87
2022/01/31 07:54:34;;;;;;;;;;;;;;;10.41;31.90;98631.28;4499921;31;34299;-87
2022/01/31 07:57:02;;;;;;;;;;;;;;;11.58;30.43;98635.00;4499869;31;33424;-87
2022/01/31 07:59:49;;;;;;;;;;;;;;;11.52;30.49;98648.00;4500327;31;34114;-88
2022/01/31 08:02:17;;;;;;;;;;;;;;;11.63;30.27;98653.19;4499951;31;34518;-87
2022/01/31 08:04:44;;;;;;;;;;;;;;;11.28;31.11;98640.19;4499686;31;34585;-87
2022/01/31 08:07:12;;;;;;;;;;;;;;;11.82;30.30;98636.75;4499919;31;33250;-87
2022/01/31 08:09:39;;;;;;;;;;;;;;;11.62;30.99;98635.88;4499841;31;34360;-87
2022/01/31 08:12:07;;;;;;;;;;;;;;;11.80;30.73;98628.09;4498622;31;34150;-87
2022/01/31 08:14:36;;;;;;;;;;;;;;;12.10;30.16;98618.56;4498666;31;34159;-88
2022/01/31 08:17:03;;;;;;;;;;;;;;;12.25;29.84;98613.31;4498651;31;34245;-88
2022/01/31 08:19:31;;;;;;;;;;;;;;;12.33;29.90;98610.69;4499292;31;33766;-88
2022/01/31 08:22:08;;;;;;;;;;;;;;;12.38;29.54;98598.53;4500281;31;35241;-88
2022/01/31 08:24:36;;;;;;;;;;;;;;;11.68;31.00;98600.41;4498967;31;34384;-87
2022/01/31 08:27:03;;;;;;;;;;;;;;;11.96;30.61;98605.59;4499884;31;34297;-88
2022/01/31 08:29:35;;;;;;;;;;;;;;;11.51;31.17;98593.47;4498450;31;34849;-88
2022/01/31 08:32:08;;;;;;;;;;;;;;;11.38;31.52;98584.84;4499578;31;34354;-88
2022/01/31 08:37:21;;;;;;;;;;;;;;;11.49;31.38;98597.81;4499447;31;34033;-88
2022/01/31 08:39:48;;;;;;;;;;;;;;;11.34;31.21;98609.06;4499466;31;34222;-88
2022/01/31 08:42:16;;;;;;;;;;;;;;;11.54;31.15;98604.72;4499487;31;35203;-88
2022/01/31 08:44:43;;;;;;;;;;;;;;;11.89;30.62;98593.47;4499525;31;33843;-88
2022/01/31 08:47:10;;;;;;;;;;;;;;;12.46;29.69;98591.56;4499249;31;33420;-88
2022/01/31 08:49:38;;;;;;;;;;;;;;;11.96;30.33;98597.78;4498259;31;34055;-88
2022/01/31 08:52:06;;;;;;;;;;;;;;;12.16;30.07;98592.56;4499412;31;35188;-88
2022/01/31 08:54:34;;;;;;;;;;;;;;;12.08;30.56;98589.09;4499790;31;33020;-88
2022/01/31 08:57:01;;;;;;;;;;;;;;;11.73;31.36;98595.19;4499453;31;33477;-88
2022/01/31 08:59:29;;;;;;;;;;;;;;;12.00;30.92;98596.91;4499382;31;34172;-87
2022/01/31 09:02:10;;;;;;;;;;;;;;;11.89;30.99;98598.66;4498175;31;34220;-88
2022/01/31 09:04:47;;;;;;;;;;;;;;;11.89;31.01;98580.50;4498221;31;34194;-88
2022/01/31 09:07:20;;;;;;;;;;;;;;;11.83;31.02;98576.19;4499551;31;34402;-87
2022/01/31 09:09:51;;;;;;;;;;;;;;;11.99;31.01;98565.75;4498311;31;34625;-87
2022/01/31 09:12:19;;;;;;;;;;;;;;;11.51;31.76;98576.16;4499273;31;34283;-88
2022/01/31 09:14:46;;;;;;;;;;;;;;;11.68;31.37;98578.78;4498108;31;33956;-87
2022/01/31 09:17:14;;;;;;;;;;;;;;;11.51;31.69;98573.56;4498036;31;33518;-87
2022/01/31 09:19:41;;;;;;;;;;;;;;;12.08;30.71;98563.97;4499190;31;34848;-88
2022/01/31 09:22:08;;;;;;;;;;;;;;;12.08;30.98;98565.72;4498031;31;34022;-88
2022/01/31 09:24:38;;;;;;;;;;;;;;;10.66;32.94;98570.03;4499417;31;34695;-88
2022/01/31 09:27:06;;;;;;;;;;;;;;;11.53;31.46;98566.66;4497869;31;33030;-88
2022/01/31 09:29:34;;;;;;;;;;;;;;;10.30;33.16;98560.41;4497828;31;34617;-88
2022/01/31 09:32:03;;;;;;;;;;;;;;;11.67;31.24;98562.34;4497834;31;34085;-87
2022/01/31 09:34:31;;;;;;;;;;;;;;;11.47;31.16;98556.28;4499280;31;34689;-87
2022/01/31 09:36:59;;;;;;;;;;;;;;;11.16;31.99;98540.72;4499274;31;33400;-87
2022/01/31 09:39:27;;;;;;;;;;;;;;;10.74;32.56;98533.75;4499125;31;33747;-87
2022/01/31 09:41:57;;;;;;;;;;;;;;;11.41;31.57;98512.19;4498473;31;35264;-88
2022/01/31 09:44:40;;;;;;;;;;;;;;;11.18;31.57;98515.66;4499340;31;34606;-87
2022/01/31 09:49:47;;;;;;;;;;;;;;;10.49;32.95;98504.31;4498054;31;33788;-88
2022/01/31 09:52:15;;;;;;;;;;;;;;;10.50;32.65;98500.03;4499084;31;35242;-88
2022/01/31 09:54:43;;;;;;;;;;;;;;;11.34;31.18;98484.50;4497848;31;34710;-87
2022/01/31 09:57:10;;;;;;;;;;;;;;;10.69;32.10;98470.69;4499156;31;33747;-88
2022/01/31 09:59:37;;;;;;;;;;;;;;;10.60;32.37;98471.50;4498708;31;34200;-87
2022/01/31 10:02:09;;;;;;;;;;;;;;;11.07;31.90;98470.69;4497777;31;34857;-88
2022/01/31 10:04:36;;;;;;;;;;;;;;;11.60;30.77;98459.34;4499083;31;33941;-88
2022/01/31 10:07:03;;;;;;;;;;;;;;;11.77;30.57;98458.44;4497628;31;34087;-87
2022/01/31 10:09:31;;;;;;;;;;;;;;;12.11;29.34;98452.25;4499183;31;34909;-87
2022/01/31 10:12:04;;;;;;;;;;;;;;;10.58;31.69;98457.69;4497628;31;34103;-88
2022/01/31 10:17:32;;;;;;;;;;;;;;;11.57;30.27;98443.78;4497898;31;33214;-88
2022/01/31 10:20:27;;;;;;;;;;;;;;;11.96;29.96;98438.47;4497575;31;34863;-88
2022/01/31 10:22:56;;;;;;;;;;;;;;;10.82;31.80;98455.97;4497470;31;34198;-88
2022/01/31 10:25:24;;;;;;;;;;;;;;;11.36;31.01;98441.22;4497402;31;34077;-88
2022/01/31 10:28:11;;;;;;;;;;;;;;;10.90;31.28;98438.69;4498639;31;33262;-88
2022/01/31 10:30:38;;;;;;;;;;;;;;;12.33;29.78;98410.56;4497246;31;33880;-88
2022/01/31 10:33:06;;;;;;;;;;;;;;;11.37;30.41;98407.50;4498607;31;34061;-87
2022/01/31 10:35:35;;;;;;;;;;;;;;;11.46;30.57;98411.81;4497344;31;33587;-88
2022/01/31 10:38:08;;;;;;;;;;;;;;;10.40;31.84;98405.84;4498554;31;34044;-88
2022/01/31 10:54:09;;;;;;;;;;;;;;;11.49;30.22;98374.59;4498074;31;34232;-87
2022/01/31 10:56:41;;;;;;;;;;;;;;;11.96;29.67;98371.81;4499047;31;34320;-88
2022/01/31 10:59:08;;;;;;;;;;;;;;;11.14;30.76;98362.59;4499079;31;32713;-87
2022/01/31 11:01:39;;;;;;;;;;;;;;;11.60;30.11;98358.09;4500049;31;34921;-87
2022/01/31 11:04:29;;;;;;;;;;;;;;;11.23;30.30;98359.97;4499220;31;35205;-88
2022/01/31 11:07:02;;;;;;;;;;;;;;;9.39;33.08;98361.50;4485860;31;33789;-88
2022/01/31 11:09:30;;;;;;;;;;;;;;;10.29;31.86;98353.16;4499058;31;33951;-88
2022/01/31 11:11:57;;;;;;;;;;;;;;;10.48;32.02;98352.28;4500174;31;33689;-87
2022/01/31 11:14:26;;;;;;;;;;;;;;;11.29;30.01;98336.59;4498573;31;34113;-88
2022/01/31 11:16:56;;;;;;;;;;;;;;;9.72;32.78;98342.66;4498846;31;34156;-87
2022/01/31 11:19:29;;;;;;;;;;;;;;;10.46;31.82;98334.16;4498858;31;34297;-88
2022/01/31 11:22:01;;;;;;;;;;;;;;;10.66;31.02;98303.03;4499215;31;33899;-88
2022/01/31 11:24:31;;;;;;;;;;;;;;;10.47;31.49;98285.78;4500133;31;35235;-89
2022/01/31 11:27:01;;;;;;;;;;;;;;;11.01;30.69;98277.87;4499939;31;33532;-88
2022/01/31 11:29:29;;;;;;;;;;;;;;;10.58;31.52;98271.09;4498871;31;32870;-88
2022/01/31 11:31:56;;;;;;;;;;;;;;;11.16;30.41;98257.94;4499164;31;33877;-88
2022/01/31 11:34:24;;;;;;;;;;;;;;;11.38;30.28;98244.88;4498644;31;34371;-88
2022/01/31 11:36:51;;;;;;;;;;;;;;;11.26;30.26;98238.00;4498853;31;34279;-88
2022/01/31 11:39:18;;;;;;;;;;;;;;;11.72;29.86;98242.09;4500163;31;33642;-88
2022/01/31 11:41:48;;;;;;;;;;;;;;;11.18;30.34;98255.34;4499657;31;34003;-88
2022/01/31 11:44:15;;;;;;;;;;;;;;;11.48;30.22;98243.06;4500106;31;34213;-87
2022/01/31 11:46:43;;;;;;;;;;;;;;;12.17;29.33;98241.75;4500045;31;35103;-88
2022/01/31 11:49:12;;;;;;;;;;;;;;;12.58;28.77;98235.31;4498665;31;33748;-88
2022/01/31 11:51:50;;;;;;;;;;;;;;;12.34;28.67;98209.56;4499943;31;34134;-88
2022/01/31 11:54:22;;;;;;;;;;;;;;;12.75;28.25;98198.72;4498415;31;34096;-88
2022/01/31 11:56:50;;;;;;;;;;;;;;;12.13;28.91;98172.50;4499193;31;34495;-88
2022/01/31 11:59:19;;;;;;;;;;;;;;;12.17;28.72;98210.59;4497825;31;33871;-88
2022/01/31 12:01:46;;;;;;;;;;;;;;;12.73;28.14;98210.91;4497569;31;34088;-87
2022/01/31 12:04:15;;;;;;;;;;;;;;;12.78;28.02;98219.50;4497534;31;33900;-88
2022/01/31 12:06:43;;;;;;;;;;;;;;;11.79;29.45;98207.41;4499158;31;34886;-87
2022/01/31 12:09:11;;;;;;;;;;;;;;;10.66;31.27;98203.69;4498977;31;33308;-88
2022/01/31 12:11:52;;;;;;;;;;;;;;;12.38;29.12;98219.03;4497506;31;33511;-88
2022/01/31 12:14:29;;;;;;;;;;;;;;;12.24;28.97;98232.19;4497601;31;34429;-88
2022/01/31 12:17:18;;;;;;;;;;;;;;;12.17;29.41;98230.50;4497872;31;33785;-88
2022/01/31 12:20:00;;;;;;;;;;;;;;;12.07;29.44;98229.72;4498801;31;33863;-88
2022/01/31 12:22:40;;;;;;;;;;;;;;;12.01;29.48;98221.09;4498067;31;34314;-88
2022/01/31 12:25:20;;;;;;;;;;;;;;;11.62;29.97;98223.94;4498718;31;34610;-88
2022/01/31 12:27:48;;;;;;;;;;;;;;;11.54;30.26;98223.13;4497907;31;34381;-86
2022/01/31 12:30:29;;;;;;;;;;;;;;;11.16;31.25;98218.16;4507230;31;33733;-86
2022/01/31 12:32:56;;;;;;;;;;;;;;;11.18;30.89;98209.53;4499723;31;34121;-86
2022/01/31 12:35:34;;;;;;;;;;;;;;;10.83;31.26;98188.91;4513795;31;34269;-86
2022/01/31 12:38:03;;;;;;;;;;;;;;;10.65;31.96;98176.03;4514431;31;35074;-87
2022/01/31 12:40:33;;;;;;;;;;;;;;;11.42;30.75;98166.97;4508410;31;32929;-85
2022/01/31 12:45:30;;;;;;;;;;;;;;;12.06;29.73;98150.06;4514302;31;34597;-85
2022/01/31 12:48:16;;;;;;;;;;;;;;;10.94;31.71;98157.75;4514291;31;34869;-85
2022/01/31 12:50:52;;;;;;;;;;;;;;;11.37;31.14;98157.53;4500928;31;33051;-86
2022/01/31 12:53:23;;;;;;;;;;;;;;;10.77;31.94;98151.78;4498114;31;34649;-86
2022/01/31 12:56:02;;;;;;;;;;;;;;;10.91;31.79;98157.75;4473353;31;791188;-86
2022/01/31 12:58:33;;;;;;;;;;;;;;;11.07;31.37;98150.78;4499099;31;34562;-85
2022/01/31 13:01:33;;;;;;;;;;;;;;;11.42;30.93;98143.63;4512437;31;33800;-85
2022/01/31 13:04:02;;;;;;;;;;;;;;;11.20;31.87;98139.44;4479732;31;34632;-85
2022/01/31 13:06:46;;;;;;;;;;;;;;;11.88;30.26;98134.63;4515153;31;34562;-84
2022/01/31 13:09:26;;;;;;;;;;;;;;;12.01;29.64;98128.47;4512230;31;34343;-85
2022/01/31 13:12:02;;;;;;;;;;;;;;;11.75;30.42;98130.41;4499234;31;33326;-85
2022/01/31 13:14:30;;;;;;;;;;;;;;;11.92;30.08;98118.16;4499381;31;34959;-85
2022/01/31 13:17:16;;;;;;;;;;;;;;;11.80;30.57;98110.44;4498239;31;35434;-85
2022/01/31 13:19:46;;;;;;;;;;;;;;;11.22;31.02;98122.16;4498907;31;34081;-85
2022/01/31 13:22:18;;;;;;;;;;;;;;;11.77;30.46;98100.94;4499229;31;33705;-85
2022/01/31 13:24:48;;;;;;;;;;;;;;;11.13;31.65;98089.34;4498946;31;35126;-85
2022/01/31 13:27:18;;;;;;;;;;;;;;;11.67;30.84;98082.00;4510918;31;34397;-83
2022/01/31 13:30:16;;;;;;;;;;;;;;;11.26;31.67;98084.09;4499026;31;34106;-85
2022/01/31 13:32:43;;;;;;;;;;;;;;;11.04;31.51;98089.41;4498082;31;33869;-85